Terminal Aerodrome Forecast
Issued by NWS Twin Cities, MN

Home | Current Version | Previous Version | Graphics & Text | Print | Product List | Glossary On
Versions: 1 2 3 4 5 6 7 8 9 10 11 12 13 14 15 16 17 18 19 20 21 22 23 24 25 26 27
000
FTUS43 KMPX 231743
TAFMSP
TAF
KMSP 231743Z 2318/2424 35005KT P6SM VCSH SCT060 OVC090
      TEMPO 2318/2320 -SHRA
     FM232000 02006KT P6SM OVC080
     FM232100 10007KT P6SM SCT050 OVC070
     FM241200 13008KT 6SM -RA BR OVC035=

USA.gov is the U.S. government's official web portal to all federal, state and local government web resources and services.